Time,TemperatureF,DewpointF,PressureIn,WindDirection,WindDirectionDegrees,WindSpeedMPH,WindSpeedGustMPH,Humidity,HourlyPrecipIn,Conditions,Clouds,dailyrainin,SolarRadiationWatts/m^2,SoftwareType,DateUTC
2013-07-20 00:01:00,64.6,55.0,30.12,ESE,103,1.0,6.0,71,0.00,,,0.00,0,weatherlink.com 1.10,2013-07-20 08:01:00,
2013-07-20 00:16:00,64.7,55.0,30.12,ESE,103,0.0,6.0,70,0.00,,,0.00,0,weatherlink.com 1.10,2013-07-20 08:16:00,
2013-07-20 00:31:00,64.6,53.0,30.12,East,97,6.0,10.0,67,0.00,,,0.00,0,weatherlink.com 1.10,2013-07-20 08:31:00,
2013-07-20 00:46:00,64.5,53.0,30.12,ESE,106,5.0,11.0,66,0.00,,,0.00,0,weatherlink.com 1.10,2013-07-20 08:46:00,
2013-07-20 01:01:00,64.2,53.0,30.12,ESE,105,0.0,7.0,67,0.00,,,0.00,0,weatherlink.com 1.10,2013-07-20 09:01:00,
2013-07-20 01:16:00,64.1,52.0,30.12,ESE,105,3.0,6.0,66,0.00,,,0.00,0,weatherlink.com 1.10,2013-07-20 09:16:00,
2013-07-20 01:31:00,64.1,52.0,30.12,ESE,104,2.0,11.0,65,0.00,,,0.00,0,weatherlink.com 1.10,2013-07-20 09:31:00,
2013-07-20 01:46:00,64.0,52.0,30.12,South,180,0.0,11.0,66,0.00,,,0.00,0,weatherlink.com 1.10,2013-07-20 09:46:00,
2013-07-20 02:01:00,63.9,53.0,30.12,SE,136,0.0,2.0,67,0.00,,,0.00,0,weatherlink.com 1.10,2013-07-20 10:01:00,
2013-07-20 02:16:00,63.4,53.0,30.12,ESE,111,1.0,5.0,68,0.00,,,0.00,0,weatherlink.com 1.10,2013-07-20 10:16:00,
2013-07-20 02:31:00,63.0,53.0,30.12,SSE,153,2.0,11.0,69,0.00,,,0.00,0,weatherlink.com 1.10,2013-07-20 10:31:00,
2013-07-20 02:46:00,62.2,53.0,30.12,SE,136,2.0,11.0,72,0.00,,,0.00,0,weatherlink.com 1.10,2013-07-20 10:46:00,
2013-07-20 03:01:00,61.6,53.0,30.11,ESE,110,0.0,5.0,73,0.00,,,0.00,0,weatherlink.com 1.10,2013-07-20 11:01:00,
2013-07-20 03:16:00,61.6,53.0,30.12,ESE,121,4.0,7.0,74,0.00,,,0.00,0,weatherlink.com 1.10,2013-07-20 11:16:00,
2013-07-20 03:31:00,60.8,54.0,30.13,SSE,157,0.0,10.0,78,0.00,,,0.00,0,weatherlink.com 1.10,2013-07-20 11:31:00,
2013-07-20 03:47:00,59.1,54.0,30.12,ESE,112,3.0,8.0,84,0.00,,,0.00,0,weatherlink.com 1.10,2013-07-20 11:47:00,
2013-07-20 04:02:00,58.8,55.0,30.13,ESE,105,2.0,3.0,86,0.00,,,0.00,0,weatherlink.com 1.10,2013-07-20 12:02:00,
2013-07-20 04:17:00,58.8,54.0,30.14,ESE,107,0.0,5.0,85,0.00,,,0.00,0,weatherlink.com 1.10,2013-07-20 12:17:00,
2013-07-20 04:32:00,58.4,55.0,30.14,ESE,107,0.0,4.0,87,0.00,,,0.00,0,weatherlink.com 1.10,2013-07-20 12:32:00,
2013-07-20 04:47:00,58.4,55.0,30.14,ESE,107,0.0,0.0,87,0.01,,,0.01,0,weatherlink.com 1.10,2013-07-20 12:47:00,
2013-07-20 05:02:00,58.0,55.0,30.13,ENE,77,2.0,8.0,89,0.01,,,0.01,0,weatherlink.com 1.10,2013-07-20 13:02:00,
2013-07-20 05:17:00,57.8,55.0,30.13,East,100,6.0,8.0,90,0.01,,,0.01,0,weatherlink.com 1.10,2013-07-20 13:17:00,
2013-07-20 05:32:00,57.4,55.0,30.13,East,93,4.0,11.0,91,0.01,,,0.01,0,weatherlink.com 1.10,2013-07-20 13:32:00,
2013-07-20 05:47:00,56.9,55.0,30.12,East,89,5.0,11.0,92,0.01,,,0.02,0,weatherlink.com 1.10,2013-07-20 13:47:00,
2013-07-20 06:02:00,56.5,55.0,30.12,ESE,105,2.0,8.0,93,0.02,,,0.03,9,weatherlink.com 1.10,2013-07-20 14:02:00,
2013-07-20 06:17:00,56.3,54.0,30.12,ESE,103,2.0,8.0,93,0.02,,,0.03,9,weatherlink.com 1.10,2013-07-20 14:17:00,
2013-07-20 06:32:00,56.2,54.0,30.11,East,99,2.0,10.0,92,0.02,,,0.03,12,weatherlink.com 1.10,2013-07-20 14:32:00,
2013-07-20 06:47:00,56.3,54.0,30.11,ESE,104,5.0,5.0,92,0.01,,,0.03,19,weatherlink.com 1.10,2013-07-20 14:47:00,
2013-07-20 07:02:00,56.4,54.0,30.11,ESE,104,0.0,4.0,92,0.00,,,0.03,46,weatherlink.com 1.10,2013-07-20 15:02:00,
2013-07-20 07:17:00,56.6,54.0,30.11,ESE,104,0.0,6.0,92,0.00,,,0.03,88,weatherlink.com 1.10,2013-07-20 15:17:00,
2013-07-20 07:32:00,57.1,55.0,30.11,ESE,104,5.0,5.0,93,0.00,,,0.03,125,weatherlink.com 1.10,2013-07-20 15:32:00,
2013-07-20 07:47:00,57.6,55.0,30.11,ESE,104,1.0,5.0,91,0.00,,,0.03,93,weatherlink.com 1.10,2013-07-20 15:47:00,
2013-07-20 08:02:00,58.9,56.0,30.12,ESE,115,3.0,5.0,89,0.00,,,0.03,156,weatherlink.com 1.10,2013-07-20 16:02:00,
2013-07-20 08:17:00,59.7,56.0,30.12,SSW,213,2.0,12.0,87,0.00,,,0.03,113,weatherlink.com 1.10,2013-07-20 16:17:00,
2013-07-20 08:32:00,59.5,55.0,30.12,SSW,200,6.0,11.0,86,0.00,,,0.03,95,weatherlink.com 1.10,2013-07-20 16:32:00,
2013-07-20 08:47:00,59.0,55.0,30.13,South,187,6.0,9.0,85,0.00,,,0.03,90,weatherlink.com 1.10,2013-07-20 16:47:00,
2013-07-20 09:02:00,59.3,56.0,30.13,SSW,213,1.0,7.0,88,0.00,,,0.03,125,weatherlink.com 1.10,2013-07-20 17:02:00,
2013-07-20 09:17:00,59.0,55.0,30.15,SSW,208,10.0,11.0,86,0.00,,,0.03,53,weatherlink.com 1.10,2013-07-20 17:17:00,
2013-07-20 09:32:00,58.5,55.0,30.15,SSW,213,5.0,12.0,88,0.00,,,0.03,77,weatherlink.com 1.10,2013-07-20 17:32:00,
2013-07-20 09:47:00,58.2,55.0,30.15,WSW,240,5.0,9.0,89,0.01,,,0.04,93,weatherlink.com 1.10,2013-07-20 17:47:00,
2013-07-20 10:02:00,58.4,55.0,30.15,SW,224,5.0,9.0,89,0.02,,,0.05,67,weatherlink.com 1.10,2013-07-20 18:02:00,
2013-07-20 10:17:00,57.9,55.0,30.14,SSW,194,5.0,10.0,90,0.03,,,0.06,44,weatherlink.com 1.10,2013-07-20 18:17:00,
2013-07-20 10:32:00,57.4,55.0,30.14,ESE,102,4.0,5.0,91,0.04,,,0.07,42,weatherlink.com 1.10,2013-07-20 18:32:00,
2013-07-20 10:47:00,57.1,55.0,30.13,ENE,59,6.0,10.0,91,0.04,,,0.08,100,weatherlink.com 1.10,2013-07-20 18:47:00,
2013-07-20 11:02:00,57.3,55.0,30.13,East,82,6.0,9.0,90,0.03,,,0.08,47,weatherlink.com 1.10,2013-07-20 19:02:00,
2013-07-20 11:17:00,57.7,55.0,30.12,NE,55,6.0,9.0,90,0.02,,,0.08,65,weatherlink.com 1.10,2013-07-20 19:17:00,
2013-07-20 11:47:00,59.3,56.0,30.12,ENE,64,0.0,6.0,88,0.00,,,0.08,176,weatherlink.com 1.10,2013-07-20 19:47:00,
2013-07-20 12:02:00,60.7,53.0,30.12,ENE,64,2.0,6.0,77,0.00,,,0.08,404,weatherlink.com 1.10,2013-07-20 20:02:00,
2013-07-20 12:17:00,62.0,53.0,30.12,SSW,207,5.0,9.0,72,0.00,,,0.08,37,weatherlink.com 1.10,2013-07-20 20:17:00,
2013-07-20 12:32:00,63.2,52.0,30.12,SW,217,0.0,7.0,68,0.00,,,0.08,153,weatherlink.com 1.10,2013-07-20 20:32:00,
2013-07-20 12:47:00,63.8,53.0,30.12,SW,225,7.0,9.0,67,0.00,,,0.08,483,weatherlink.com 1.10,2013-07-20 20:47:00,
2013-07-20 13:02:00,63.9,52.0,30.12,SSW,211,11.0,12.0,66,0.00,,,0.08,93,weatherlink.com 1.10,2013-07-20 21:02:00,
2013-07-20 13:17:00,63.5,51.0,30.12,SW,227,4.0,9.0,63,0.00,,,0.08,33,weatherlink.com 1.10,2013-07-20 21:17:00,
2013-07-20 13:32:00,65.2,52.0,30.12,West,266,0.0,7.0,63,0.00,,,0.08,33,weatherlink.com 1.10,2013-07-20 21:32:00,
2013-07-20 13:47:00,67.6,53.0,30.11,West,281,4.0,8.0,59,0.00,,,0.08,33,weatherlink.com 1.10,2013-07-20 21:47:00,
2013-07-20 14:02:00,67.4,51.0,30.11,West,275,6.0,9.0,55,0.00,,,0.08,37,weatherlink.com 1.10,2013-07-20 22:02:00,
2013-07-20 14:17:00,67.3,52.0,30.11,WSW,246,9.0,11.0,58,0.00,,,0.08,35,weatherlink.com 1.10,2013-07-20 22:17:00,
2013-07-20 14:32:00,66.9,51.0,30.11,SW,216,9.0,12.0,57,0.00,,,0.08,40,weatherlink.com 1.10,2013-07-20 22:32:00,
2013-07-20 14:47:00,67.9,51.0,30.10,WSW,239,0.0,11.0,55,0.00,,,0.08,54,weatherlink.com 1.10,2013-07-20 22:47:00,
2013-07-20 15:02:00,67.3,53.0,30.10,WSW,254,9.0,14.0,60,0.00,,,0.08,58,weatherlink.com 1.10,2013-07-20 23:02:00,
2013-07-20 15:32:00,67.0,54.0,30.10,SW,223,8.0,16.0,64,0.00,,,0.08,51,weatherlink.com 1.10,2013-07-20 23:32:00,
2013-07-20 15:47:00,67.2,54.0,30.09,WSW,238,9.0,14.0,63,0.00,,,0.08,381,weatherlink.com 1.10,2013-07-20 23:47:00,
2013-07-20 16:17:00,66.9,52.0,30.09,SW,232,8.0,15.0,59,0.00,,,0.08,663,weatherlink.com 1.10,2013-07-21 00:17:00,
2013-07-20 16:32:00,67.3,52.0,30.09,SSW,212,8.0,16.0,58,0.00,,,0.08,60,weatherlink.com 1.10,2013-07-21 00:32:00,
2013-07-20 17:03:00,68.4,51.0,30.09,WSW,242,7.0,12.0,54,0.00,,,0.08,352,weatherlink.com 1.10,2013-07-21 01:03:00,
2013-07-20 17:18:00,69.1,53.0,30.08,WSW,242,9.0,10.0,57,0.00,,,0.08,659,weatherlink.com 1.10,2013-07-21 01:18:00,
2013-07-20 17:33:00,70.3,52.0,30.08,SSW,201,9.0,14.0,52,0.00,,,0.08,515,weatherlink.com 1.10,2013-07-21 01:33:00,
2013-07-20 17:48:00,69.9,51.0,30.08,South,175,6.0,12.0,52,0.00,,,0.08,522,weatherlink.com 1.10,2013-07-21 01:48:00,
2013-07-20 18:03:00,69.3,53.0,30.08,SSW,211,6.0,14.0,56,0.00,,,0.08,503,weatherlink.com 1.10,2013-07-21 02:03:00,
2013-07-20 18:18:00,68.8,52.0,30.08,WSW,238,4.0,15.0,56,0.00,,,0.08,63,weatherlink.com 1.10,2013-07-21 02:18:00,
2013-07-20 18:48:00,69.2,51.0,30.07,SW,221,3.0,14.0,53,0.00,,,0.08,531,weatherlink.com 1.10,2013-07-21 02:48:00,
2013-07-20 19:03:00,69.6,52.0,30.07,SW,229,8.0,13.0,53,0.00,,,0.08,390,weatherlink.com 1.10,2013-07-21 03:03:00,
2013-07-20 19:18:00,69.3,51.0,30.07,WSW,242,9.0,12.0,53,0.00,,,0.08,352,weatherlink.com 1.10,2013-07-21 03:18:00,
2013-07-20 19:33:00,69.8,52.0,30.07,SW,223,8.0,10.0,54,0.00,,,0.08,320,weatherlink.com 1.10,2013-07-21 03:33:00,
2013-07-20 19:48:00,69.9,51.0,30.07,SW,223,4.0,11.0,52,0.00,,,0.08,288,weatherlink.com 1.10,2013-07-21 03:48:00,
2013-07-20 20:03:00,70.3,51.0,30.06,SSW,192,5.0,6.0,51,0.00,,,0.08,262,weatherlink.com 1.10,2013-07-21 04:03:00,
2013-07-20 20:18:00,69.8,51.0,30.06,South,175,0.0,8.0,51,0.00,,,0.08,234,weatherlink.com 1.10,2013-07-21 04:18:00,
2013-07-20 20:33:00,69.6,51.0,30.06,South,191,7.0,11.0,52,0.00,,,0.08,190,weatherlink.com 1.10,2013-07-21 04:33:00,
2013-07-20 20:48:00,69.3,51.0,30.06,South,190,9.0,10.0,52,0.00,,,0.08,171,weatherlink.com 1.10,2013-07-21 04:48:00,
2013-07-20 21:03:00,68.9,50.0,30.06,South,185,7.0,10.0,51,0.00,,,0.00,137,weatherlink.com 1.10,2013-07-21 05:03:00,
2013-07-20 21:18:00,69.4,50.0,30.06,ESE,120,7.0,7.0,51,0.00,,,0.00,104,weatherlink.com 1.10,2013-07-21 05:18:00,
2013-07-20 21:33:00,69.0,50.0,30.06,South,190,6.0,9.0,51,0.00,,,0.00,81,weatherlink.com 1.10,2013-07-21 05:33:00,
2013-07-20 21:48:00,68.5,51.0,30.06,SSW,210,5.0,11.0,53,0.00,,,0.00,49,weatherlink.com 1.10,2013-07-21 05:48:00,
2013-07-20 22:03:00,68.5,51.0,30.06,SSW,209,5.0,7.0,53,0.00,,,0.00,39,weatherlink.com 1.10,2013-07-21 06:03:00,
2013-07-20 22:18:00,68.0,51.0,30.06,SSW,207,1.0,5.0,54,0.00,,,0.00,25,weatherlink.com 1.10,2013-07-21 06:18:00,
2013-07-20 22:33:00,67.7,50.0,30.06,SSW,201,5.0,6.0,54,0.00,,,0.00,23,weatherlink.com 1.10,2013-07-21 06:33:00,
2013-07-20 22:48:00,67.5,51.0,30.06,SSW,198,1.0,5.0,55,0.00,,,0.00,12,weatherlink.com 1.10,2013-07-21 06:48:00,
2013-07-20 23:03:00,67.3,51.0,30.06,SSW,200,4.0,5.0,56,0.00,,,0.00,5,weatherlink.com 1.10,2013-07-21 07:03:00,
2013-07-20 23:18:00,66.5,52.0,30.06,SSW,205,1.0,6.0,59,0.00,,,0.00,0,weatherlink.com 1.10,2013-07-21 07:18:00,
2013-07-20 23:33:00,66.0,52.0,30.07,SSW,211,5.0,7.0,62,0.00,,,0.00,0,weatherlink.com 1.10,2013-07-21 07:33:00,
2013-07-20 23:48:00,65.2,53.0,30.07,SSW,209,2.0,3.0,64,0.00,,,0.00,0,weatherlink.com 1.10,2013-07-21 07:48:00,